Time;durP1;ratioP1;P1;durP2;ratioP2;P2;SDS_P1;SDS_P2;PMS_P1;PMS_P2;Temp;Humidity;BMP_temperature;BMP_pressure;BME280_temperature;BME280_humidity;BME280_pressure;Samples;Min_cycle;Max_cycle;Signal;HPM_P1;HPM_P2
2024/03/29 00:01:20;;;;;;;24.83;12.23;;;6.00;75.50;;;;;;5036256;28;20079;-85
2024/03/29 00:03:46;;;;;;;21.23;11.40;;;6.00;75.80;;;;;;5052338;28;20028;-84
2024/03/29 00:06:11;;;;;;;17.25;9.50;;;6.00;75.80;;;;;;5053124;28;20422;-85
2024/03/29 00:08:37;;;;;;;21.38;10.90;;;6.00;75.70;;;;;;5053133;28;20496;-83
2024/03/29 00:11:03;;;;;;;20.90;12.43;;;6.00;75.80;;;;;;5048166;28;20542;-84
2024/03/29 00:13:29;;;;;;;17.17;9.93;;;6.00;75.80;;;;;;5052332;28;20090;-84
2024/03/29 00:15:55;;;;;;;19.33;10.18;;;6.00;75.90;;;;;;5038237;28;20095;-83
2024/03/29 00:18:21;;;;;;;22.25;12.00;;;6.00;76.00;;;;;;5052800;28;20021;-83
2024/03/29 00:20:47;;;;;;;21.30;11.70;;;6.00;76.20;;;;;;5034606;28;20065;-84
2024/03/29 00:23:13;;;;;;;17.65;11.07;;;6.00;76.30;;;;;;5057911;28;20025;-84
2024/03/29 00:25:39;;;;;;;22.95;12.30;;;6.10;76.20;;;;;;5052763;28;20056;-84
2024/03/29 00:28:08;;;;;;;20.58;11.68;;;6.10;76.20;;;;;;5053196;28;20025;-83
2024/03/29 00:30:33;;;;;;;18.25;10.55;;;6.00;76.40;;;;;;5053613;28;20482;-83
2024/03/29 00:32:59;;;;;;;17.40;10.88;;;6.00;76.50;;;;;;5034735;28;20070;-82
2024/03/29 00:35:25;;;;;;;20.38;11.02;;;5.90;76.60;;;;;;5052710;28;20029;-83
2024/03/29 00:37:51;;;;;;;21.42;11.25;;;5.90;76.70;;;;;;5052292;28;20060;-83
2024/03/29 00:40:17;;;;;;;20.65;11.77;;;5.90;76.90;;;;;;5034435;28;20056;-83
2024/03/29 00:42:42;;;;;;;21.58;12.80;;;6.00;77.00;;;;;;5052477;28;20441;-85
2024/03/29 00:45:08;;;;;;;21.67;10.63;;;6.00;77.00;;;;;;5054607;28;20032;-85
2024/03/29 00:47:34;;;;;;;23.98;12.93;;;6.00;76.90;;;;;;5064490;28;20025;-84
2024/03/29 00:50:01;;;;;;;22.30;11.82;;;6.00;77.00;;;;;;5060656;28;20025;-86
2024/03/29 00:52:26;;;;;;;18.73;11.02;;;6.00;77.30;;;;;;5057401;28;20025;-85
2024/03/29 00:54:52;;;;;;;25.02;12.88;;;6.00;77.20;;;;;;5058927;28;20054;-86
2024/03/29 00:57:18;;;;;;;21.92;11.73;;;5.90;77.30;;;;;;5058120;28;20013;-85
2024/03/29 00:59:44;;;;;;;20.17;11.07;;;5.90;77.50;;;;;;5054843;28;20036;-85
2024/03/29 01:02:10;;;;;;;18.67;12.63;;;5.90;77.70;;;;;;5052985;28;20037;-85
2024/03/29 01:04:37;;;;;;;20.40;12.13;;;5.90;77.60;;;;;;5053342;28;20076;-86
2024/03/29 01:07:03;;;;;;;20.80;11.40;;;5.90;77.60;;;;;;5052926;28;20025;-85
2024/03/29 01:09:29;;;;;;;22.73;13.63;;;5.80;77.80;;;;;;5052528;28;20386;-86
2024/03/29 01:11:55;;;;;;;19.77;11.30;;;5.80;78.10;;;;;;5053855;28;20025;-85
2024/03/29 01:14:21;;;;;;;20.58;12.48;;;5.80;78.20;;;;;;5035185;28;20028;-83
2024/03/29 01:16:47;;;;;;;21.23;13.13;;;5.90;78.40;;;;;;5063116;28;20029;-86
2024/03/29 01:19:13;;;;;;;22.83;13.15;;;5.90;78.30;;;;;;5062083;28;20111;-85
2024/03/29 01:21:38;;;;;;;24.23;14.98;;;6.00;78.30;;;;;;5048251;28;20045;-86
2024/03/29 01:24:04;;;;;;;23.48;12.35;;;6.00;78.30;;;;;;5067630;28;20029;-83
2024/03/29 01:26:30;;;;;;;20.95;12.00;;;6.00;78.10;;;;;;5044504;28;20541;-87
2024/03/29 01:28:56;;;;;;;22.70;13.90;;;5.90;78.30;;;;;;5059670;28;20028;-85
2024/03/29 01:31:25;;;;;;;20.08;13.32;;;5.80;78.70;;;;;;5041818;28;20047;-85
2024/03/29 01:33:51;;;;;;;19.83;12.75;;;5.90;78.90;;;;;;5060644;28;20024;-84
2024/03/29 01:36:17;;;;;;;23.58;13.43;;;6.00;78.90;;;;;;5058944;28;20070;-86
2024/03/29 01:38:45;;;;;;;22.52;12.63;;;6.00;78.70;;;;;;5052332;28;20028;-87
2024/03/29 01:41:12;;;;;;;19.95;14.27;;;6.00;78.70;;;;;;5040632;28;20378;-87
2024/03/29 01:43:38;;;;;;;25.00;12.63;;;5.80;79.10;;;;;;5041516;28;20178;-84
2024/03/29 01:46:07;;;;;;;24.65;13.82;;;5.90;79.20;;;;;;5058607;28;20115;-82
2024/03/29 01:48:33;;;;;;;33.80;17.67;;;5.90;79.40;;;;;;5059073;28;20054;-84
2024/03/29 01:51:00;;;;;;;28.70;14.73;;;5.90;79.60;;;;;;5058817;28;20743;-82
2024/03/29 01:53:27;;;;;;;21.47;14.33;;;5.90;79.40;;;;;;5058332;28;20025;-83
2024/03/29 01:55:53;;;;;;;26.48;13.32;;;5.90;79.50;;;;;;5057923;28;20600;-83
2024/03/29 01:58:21;;;;;;;20.58;13.40;;;6.00;79.40;;;;;;5040192;28;20104;-83
2024/03/29 02:00:59;;;;;;;27.17;13.98;;;6.00;79.50;;;;;;5058764;28;20452;-83
2024/03/29 02:03:25;;;;;;;21.95;11.40;;;6.10;79.50;;;;;;5058414;28;20024;-84
2024/03/29 02:05:52;;;;;;;27.65;13.77;;;6.00;79.40;;;;;;5062729;28;20029;-83
2024/03/29 02:08:18;;;;;;;37.88;13.52;;;6.00;79.60;;;;;;5058975;28;20029;-82
2024/03/29 02:10:47;;;;;;;22.80;13.75;;;6.00;79.70;;;;;;5040396;28;20123;-84
2024/03/29 02:13:13;;;;;;;27.27;14.27;;;5.90;79.80;;;;;;5058135;28;20024;-83
2024/03/29 02:15:41;;;;;;;26.00;15.50;;;5.90;79.80;;;;;;5058031;28;20108;-83
2024/03/29 02:18:08;;;;;;;27.08;14.68;;;6.00;79.80;;;;;;5057849;28;20036;-83
2024/03/29 02:20:36;;;;;;;25.85;13.95;;;6.10;79.80;;;;;;5058002;28;20529;-84
2024/03/29 02:23:11;;;;;;;27.73;15.23;;;6.10;79.60;;;;;;5055806;28;20025;-84
2024/03/29 02:25:38;;;;;;;21.08;14.27;;;6.00;79.70;;;;;;5057852;28;20040;-84
2024/03/29 02:28:04;;;;;;;23.67;13.77;;;6.00;79.80;;;;;;5048952;28;20457;-87
2024/03/29 02:30:30;;;;;;;25.15;14.57;;;6.00;79.80;;;;;;5031298;28;20029;-90
2024/03/29 02:32:57;;;;;;;23.33;14.35;;;6.00;80.50;;;;;;5035269;28;20021;-87
2024/03/29 02:35:24;;;;;;;25.23;13.60;;;6.10;79.90;;;;;;5049218;28;20028;-88
2024/03/29 02:37:50;;;;;;;25.10;14.48;;;6.10;79.80;;;;;;5053020;28;20017;-85
2024/03/29 02:40:16;;;;;;;28.60;15.60;;;6.10;79.90;;;;;;5048802;28;20025;-83
2024/03/29 02:42:42;;;;;;;24.38;13.18;;;6.10;79.90;;;;;;5056916;28;20757;-83
2024/03/29 02:45:08;;;;;;;29.70;14.43;;;6.20;79.90;;;;;;5044734;28;20033;-82
2024/03/29 02:47:36;;;;;;;26.05;13.43;;;6.10;80.50;;;;;;5056970;28;20421;-83
2024/03/29 02:50:03;;;;;;;23.40;15.23;;;6.10;80.00;;;;;;5053786;28;20036;-83
2024/03/29 02:52:29;;;;;;;22.20;14.57;;;6.10;80.00;;;;;;5043693;28;20033;-85
2024/03/29 02:54:55;;;;;;;25.52;14.27;;;6.10;80.00;;;;;;5054421;28;20048;-84
2024/03/29 02:57:21;;;;;;;30.08;15.98;;;6.10;79.90;;;;;;5048220;28;20021;-85
2024/03/29 02:59:46;;;;;;;28.75;15.45;;;6.10;80.20;;;;;;5054084;28;20029;-85
2024/03/29 03:02:12;;;;;;;24.42;14.80;;;6.10;80.10;;;;;;5053877;28;20108;-83
2024/03/29 03:04:38;;;;;;;28.10;16.67;;;6.20;80.10;;;;;;5054063;28;20115;-84
2024/03/29 03:12:32;;;;;;;25.33;15.20;;;6.30;79.70;;;;;;5058262;28;20046;-84
2024/03/29 03:15:01;;;;;;;31.02;15.00;;;6.30;79.60;;;;;;5023084;28;20086;-84
2024/03/29 03:17:28;;;;;;;29.30;15.98;;;6.30;80.20;;;;;;5048617;28;20025;-86
2024/03/29 03:19:54;;;;;;;24.50;14.27;;;6.30;79.60;;;;;;5055225;28;20068;-84
2024/03/29 03:22:20;;;;;;;28.02;13.88;;;6.30;79.60;;;;;;5035927;28;20025;-84
2024/03/29 03:24:46;;;;;;;29.67;14.75;;;6.20;79.50;;;;;;5054380;28;20033;-85
2024/03/29 03:27:11;;;;;;;28.25;15.30;;;6.10;79.90;;;;;;5022576;28;20442;-84
2024/03/29 03:29:39;;;;;;;26.33;14.25;;;6.00;80.20;;;;;;5054416;28;20032;-83
2024/03/29 03:32:05;;;;;;;32.15;14.93;;;5.90;80.50;;;;;;5046282;28;20021;-83
2024/03/29 03:34:31;;;;;;;26.55;14.45;;;5.80;80.60;;;;;;5038492;28;20029;-84
2024/03/29 03:36:57;;;;;;;23.15;14.60;;;5.80;80.90;;;;;;5049883;28;20524;-84
2024/03/29 03:39:23;;;;;;;24.67;14.15;;;5.70;81.10;;;;;;5047197;28;20033;-84
2024/03/29 03:41:50;;;;;;;23.55;13.85;;;5.70;81.20;;;;;;5056928;28;20356;-83
2024/03/29 03:44:16;;;;;;;26.85;14.52;;;5.70;81.30;;;;;;5057302;28;20028;-83
2024/03/29 03:46:41;;;;;;;24.45;12.65;;;5.60;81.40;;;;;;5054499;28;20029;-84
2024/03/29 03:49:08;;;;;;;26.13;14.65;;;5.60;81.60;;;;;;5047658;28;20024;-84
2024/03/29 03:51:33;;;;;;;24.15;14.65;;;5.60;81.70;;;;;;5056738;28;20032;-85
2024/03/29 03:53:59;;;;;;;20.52;13.10;;;5.60;81.80;;;;;;5061226;28;20021;-84
2024/03/29 03:56:25;;;;;;;25.65;14.73;;;5.60;81.80;;;;;;5060329;28;20039;-83
2024/03/29 03:58:51;;;;;;;26.90;14.23;;;5.60;82.00;;;;;;5044348;28;20056;-86
2024/03/29 04:01:16;;;;;;;22.85;11.85;;;5.60;82.10;;;;;;5062656;28;20013;-86
2024/03/29 04:03:42;;;;;;;20.48;14.38;;;5.60;82.10;;;;;;5040786;28;20026;-85
2024/03/29 04:06:08;;;;;;;23.63;13.57;;;5.60;82.00;;;;;;5028933;28;20044;-84
2024/03/29 04:08:34;;;;;;;23.85;13.23;;;5.60;82.10;;;;;;5048493;28;20434;-85
2024/03/29 04:11:03;;;;;;;23.90;11.77;;;5.70;82.10;;;;;;5054480;28;20033;-85
2024/03/29 04:13:29;;;;;;;17.27;11.82;;;5.80;82.10;;;;;;5054894;28;20017;-87
2024/03/29 04:16:05;;;;;;;32.17;14.60;;;5.90;82.30;;;;;;5054707;28;20031;-86
2024/03/29 04:18:31;;;;;;;26.55;14.45;;;6.10;81.70;;;;;;5054773;28;20013;-86
2024/03/29 04:21:02;;;;;;;18.02;13.60;;;6.30;81.00;;;;;;5034834;28;20056;-85
2024/03/29 04:23:28;;;;;;;20.98;12.82;;;6.50;80.60;;;;;;5035109;28;20025;-86
2024/03/29 04:25:58;;;;;;;25.65;12.40;;;6.60;79.80;;;;;;5033123;28;20035;-86
2024/03/29 04:28:25;;;;;;;19.40;11.88;;;6.80;79.80;;;;;;5054565;28;20029;-85
2024/03/29 04:31:01;;;;;;;26.02;12.95;;;7.00;78.90;;;;;;5053923;28;20075;-89
2024/03/29 04:33:27;;;;;;;21.98;12.35;;;7.30;78.50;;;;;;5035654;28;20025;-87
2024/03/29 04:36:00;;;;;;;17.17;11.73;;;7.50;77.90;;;;;;5054528;28;20021;-87
2024/03/29 04:38:27;;;;;;;19.70;10.45;;;7.80;76.70;;;;;;5024511;28;20063;-87
2024/03/29 04:40:55;;;;;;;24.90;13.27;;;7.90;75.90;;;;;;5018729;28;20484;-86
2024/03/29 04:43:28;;;;;;;22.08;12.65;;;7.90;75.00;;;;;;5056215;28;20166;-86
2024/03/29 04:46:13;;;;;;;24.27;11.73;;;7.90;74.90;;;;;;5049398;28;20048;-85
2024/03/29 04:48:41;;;;;;;22.70;11.63;;;7.80;75.00;;;;;;5052429;28;20387;-85
2024/03/29 04:51:07;;;;;;;;;;;7.70;75.00;;;;;;5053117;28;20064;-85
2024/03/29 04:53:34;;;;;;;19.90;12.35;;;7.70;75.10;;;;;;5053385;28;19912;-85
2024/03/29 04:56:00;;;;;;;;;;;7.60;75.10;;;;;;5025975;28;20021;-85
2024/03/29 04:58:29;;;;;;;23.10;11.73;;;7.60;75.90;;;;;;5048724;28;20381;-86
2024/03/29 05:00:55;;;;;;;26.35;11.43;;;7.50;75.60;;;;;;5053251;28;20505;-85
2024/03/29 05:03:22;;;;;;;31.77;12.15;;;7.50;75.60;;;;;;5054125;28;20033;-87
2024/03/29 05:05:51;;;;;;;19.00;10.63;;;7.40;75.80;;;;;;5051384;28;20040;-86
2024/03/29 05:08:19;;;;;;;16.95;11.50;;;7.30;76.00;;;;;;5041651;28;20096;-86
2024/03/29 05:10:45;;;;;;;19.67;9.90;;;7.20;76.20;;;;;;5051537;28;20071;-86
2024/03/29 05:13:11;;;;;;;16.65;10.75;;;7.10;76.40;;;;;;5042302;28;20026;-86
2024/03/29 05:15:37;;;;;;;18.95;10.77;;;6.90;77.00;;;;;;5047517;28;20078;-86
2024/03/29 05:18:03;;;;;;;16.20;10.68;;;7.00;77.00;;;;;;5024728;28;20029;-84
2024/03/29 05:20:30;;;;;;;20.33;11.32;;;7.10;77.00;;;;;;5052564;28;20136;-84
2024/03/29 05:22:56;;;;;;;28.40;11.38;;;7.20;76.90;;;;;;5052999;28;20108;-84
2024/03/29 05:25:44;;;;;;;16.95;10.15;;;7.30;77.30;;;;;;5035817;28;20698;-85
2024/03/29 05:28:19;;;;;;;22.00;12.48;;;7.50;76.20;;;;;;5055498;28;20036;-86
2024/03/29 05:30:44;;;;;;;21.50;11.27;;;7.70;75.90;;;;;;5044536;28;20066;-85
2024/03/29 05:33:22;;;;;;;27.67;13.45;;;7.80;75.60;;;;;;5049631;28;20037;-85
2024/03/29 05:35:48;;;;;;;17.15;10.82;;;7.90;75.00;;;;;;5038420;28;20025;-87
2024/03/29 05:38:14;;;;;;;20.38;9.85;;;8.10;74.70;;;;;;5046350;28;20055;-86
2024/03/29 05:40:40;;;;;;;16.70;9.30;;;8.00;74.00;;;;;;5042577;28;20021;-86
2024/03/29 05:43:06;;;;;;;27.80;11.13;;;8.00;74.10;;;;;;5045718;28;20032;-86
2024/03/29 05:45:32;;;;;;;32.70;10.82;;;8.00;74.10;;;;;;5041841;28;20037;-83
2024/03/29 05:47:58;;;;;;;22.05;9.55;;;8.00;73.90;;;;;;5046014;28;20021;-85
2024/03/29 05:50:25;;;;;;;13.10;8.80;;;7.90;73.60;;;;;;5054887;28;20021;-86
2024/03/29 05:52:52;;;;;;;17.20;9.77;;;7.70;74.10;;;;;;5037432;28;20036;-84
2024/03/29 05:55:18;;;;;;;18.77;9.03;;;7.70;74.70;;;;;;5033514;28;20352;-85
2024/03/29 05:57:45;;;;;;;22.38;8.45;;;8.00;74.30;;;;;;5024079;28;20018;-86
2024/03/29 06:00:16;;;;;;;16.90;8.75;;;8.20;73.10;;;;;;5034953;28;20025;-85
2024/03/29 06:02:44;;;;;;;19.92;8.05;;;8.10;73.40;;;;;;5023857;28;20120;-85
2024/03/29 06:05:10;;;;;;;18.60;8.82;;;8.20;73.30;;;;;;5037476;28;20041;-85
2024/03/29 06:07:37;;;;;;;12.48;8.50;;;8.20;73.40;;;;;;5038383;28;20467;-86
2024/03/29 06:10:04;;;;;;;21.10;10.73;;;8.30;72.80;;;;;;5018494;28;20120;-84
2024/03/29 06:12:34;;;;;;;20.40;10.35;;;8.30;72.70;;;;;;5039707;28;20017;-85
2024/03/29 06:17:45;;;;;;;17.88;9.95;;;8.30;72.70;;;;;;5037808;28;20129;-87
2024/03/29 06:20:11;;;;;;;26.52;10.65;;;8.30;72.90;;;;;;5044437;28;20592;-87
2024/03/29 06:22:37;;;;;;;26.80;9.77;;;8.40;73.10;;;;;;5058566;28;20060;-86
2024/03/29 06:25:06;;;;;;;19.25;10.10;;;8.40;72.80;;;;;;5057577;28;20040;-86
2024/03/29 06:27:33;;;;;;;25.45;9.27;;;8.50;72.70;;;;;;5058991;28;20048;-86
2024/03/29 06:29:59;;;;;;;20.92;9.75;;;8.50;72.40;;;;;;5058369;28;20025;-87
2024/03/29 06:32:25;;;;;;;13.63;8.85;;;8.40;72.60;;;;;;5057642;28;20363;-86
2024/03/29 06:34:50;;;;;;;17.38;9.48;;;8.50;72.50;;;;;;5057230;28;20050;-86
2024/03/29 06:37:16;;;;;;;25.17;9.13;;;8.40;72.70;;;;;;5053400;28;20134;-86
2024/03/29 06:39:43;;;;;;;15.27;9.23;;;8.40;72.80;;;;;;5057029;28;20020;-85
2024/03/29 06:42:12;;;;;;;20.70;10.30;;;8.30;73.00;;;;;;5041773;28;20449;-85
2024/03/29 06:44:38;;;;;;;23.27;8.45;;;8.50;72.80;;;;;;5044776;28;20044;-86
2024/03/29 06:47:04;;;;;;;26.70;10.07;;;8.60;72.10;;;;;;5037447;28;20106;-86
2024/03/29 06:49:32;;;;;;;20.00;9.00;;;8.60;72.30;;;;;;5022817;28;20030;-86
2024/03/29 06:52:00;;;;;;;13.80;8.25;;;8.70;72.00;;;;;;5050909;28;20115;-88
2024/03/29 06:54:26;;;;;;;;;;;8.70;71.70;;;;;;5059999;28;20057;-88
2024/03/29 06:57:17;;;;;;;23.93;8.67;;;8.60;71.90;;;;;;5043198;28;19963;-86
2024/03/29 06:59:43;;;;;;;23.75;9.55;;;8.40;72.20;;;;;;5034915;28;20679;-86
2024/03/29 07:02:10;;;;;;;14.80;8.98;;;8.40;72.30;;;;;;5061710;28;20029;-84
2024/03/29 07:05:07;;;;;;;19.55;8.90;;;8.50;72.60;;;;;;5058755;28;20045;-86
2024/03/29 07:07:36;;;;;;;20.13;9.60;;;8.50;72.40;;;;;;5055130;28;20071;-86
2024/03/29 07:10:02;;;;;;;24.67;8.98;;;8.40;72.50;;;;;;5038558;28;20103;-86
2024/03/29 07:12:28;;;;;;;21.30;10.13;;;8.40;72.50;;;;;;5058233;28;20017;-88
2024/03/29 07:14:54;;;;;;;17.50;8.77;;;8.60;72.50;;;;;;5039278;28;20021;-83
2024/03/29 07:17:20;;;;;;;18.85;8.55;;;8.70;71.90;;;;;;5040523;28;20030;-80
2024/03/29 07:19:48;;;;;;;23.60;10.82;;;8.60;72.20;;;;;;5053183;28;20469;-79
2024/03/29 07:22:14;;;;;;;23.48;9.38;;;8.60;72.20;;;;;;5058960;28;20389;-79
2024/03/29 07:24:40;;;;;;;26.48;11.25;;;8.70;72.20;;;;;;5068625;28;20040;-80
2024/03/29 07:27:06;;;;;;;56.95;15.80;;;8.80;72.10;;;;;;5062530;28;20021;-80
2024/03/29 07:29:33;;;;;;;14.77;8.18;;;8.90;72.00;;;;;;5067358;28;20109;-79
2024/03/29 07:32:00;;;;;;;20.58;10.25;;;9.00;71.40;;;;;;5057731;28;20017;-81
2024/03/29 07:34:26;;;;;;;34.28;12.45;;;8.70;71.80;;;;;;5048651;28;20027;-82
2024/03/29 07:36:52;;;;;;;17.98;8.93;;;8.60;73.10;;;;;;5043926;28;20260;-81
2024/03/29 07:39:23;;;;;;;21.60;10.45;;;8.70;72.10;;;;;;5047730;28;20026;-81
2024/03/29 07:41:52;;;;;;;18.17;9.85;;;8.50;72.30;;;;;;5064792;28;20025;-79
2024/03/29 07:44:18;;;;;;;43.63;13.32;;;8.40;72.70;;;;;;5054413;28;20421;-81
2024/03/29 07:46:46;;;;;;;18.83;9.73;;;8.30;73.00;;;;;;5037242;28;20023;-81
2024/03/29 07:49:13;;;;;;;22.05;10.38;;;8.30;73.20;;;;;;5032190;28;20017;-81
2024/03/29 07:51:39;;;;;;;19.30;9.52;;;8.20;73.30;;;;;;5055038;28;20021;-81
2024/03/29 07:54:04;;;;;;;17.20;8.57;;;8.20;73.60;;;;;;5056664;28;20017;-81
2024/03/29 07:56:31;;;;;;;19.50;9.75;;;8.10;73.80;;;;;;5057919;28;20052;-79
2024/03/29 07:58:56;;;;;;;19.58;10.00;;;8.10;74.20;;;;;;5066435;28;20029;-78
2024/03/29 08:01:23;;;;;;;32.83;11.98;;;8.10;74.30;;;;;;5066884;28;20111;-83
2024/03/29 08:03:55;;;;;;;19.58;10.43;;;8.10;74.60;;;;;;5051632;28;20027;-81
2024/03/29 08:06:23;;;;;;;21.38;10.27;;;8.00;74.60;;;;;;5067544;28;20131;-81
2024/03/29 08:08:52;;;;;;;16.95;9.70;;;8.00;75.20;;;;;;5062481;28;20047;-82
2024/03/29 08:11:18;;;;;;;21.73;8.20;;;7.90;76.20;;;;;;5021442;28;20037;-82
2024/03/29 08:13:44;;;;;;;15.95;8.77;;;7.70;77.70;;;;;;5031507;28;20025;-82
2024/03/29 08:16:10;;;;;;;17.70;9.88;;;7.50;79.00;;;;;;5052461;28;20024;-81
2024/03/29 08:18:36;;;;;;;20.52;9.93;;;7.20;80.30;;;;;;5045679;28;20029;-80
2024/03/29 08:21:03;;;;;;;17.63;10.75;;;7.20;81.50;;;;;;5056678;28;20040;-81
2024/03/29 08:23:38;;;;;;;19.43;11.57;;;7.20;82.30;;;;;;5058907;28;20028;-81
2024/03/29 08:26:04;;;;;;;23.38;10.88;;;7.40;82.70;;;;;;5061538;28;20031;-82
2024/03/29 08:28:30;;;;;;;19.60;10.63;;;7.50;83.60;;;;;;5056724;28;20017;-83
2024/03/29 08:31:05;;;;;;;16.45;10.70;;;7.50;84.00;;;;;;5038366;28;20383;-83
2024/03/29 08:33:37;;;;;;;22.70;12.70;;;7.50;83.90;;;;;;5062939;28;20496;-83
2024/03/29 08:36:08;;;;;;;19.05;10.45;;;7.50;84.20;;;;;;5044111;28;20081;-82
2024/03/29 08:38:41;;;;;;;23.23;10.32;;;7.40;84.00;;;;;;5043974;28;20032;-82
2024/03/29 08:41:09;;;;;;;22.42;12.80;;;7.30;84.20;;;;;;5059336;28;20427;-82
2024/03/29 08:43:37;;;;;;;13.55;9.38;;;7.30;84.60;;;;;;5047673;28;20033;-83
2024/03/29 08:46:03;;;;;;;24.80;11.27;;;7.30;83.80;;;;;;5054472;28;20055;-83
2024/03/29 08:48:30;;;;;;;22.42;10.18;;;7.30;83.90;;;;;;5053749;28;20021;-84
2024/03/29 08:50:56;;;;;;;19.77;9.45;;;7.50;83.50;;;;;;5043855;28;20025;-85
2024/03/29 08:53:22;;;;;;;15.73;10.00;;;7.50;83.00;;;;;;5050052;28;20467;-83
2024/03/29 08:55:48;;;;;;;17.98;10.15;;;7.50;83.30;;;;;;5049645;28;20028;-83
2024/03/29 08:58:18;;;;;;;16.00;10.50;;;7.60;83.10;;;;;;5065899;28;20119;-83
2024/03/29 09:00:55;;;;;;;20.35;10.50;;;7.70;82.90;;;;;;5043703;28;20111;-82
2024/03/29 09:03:24;;;;;;;19.17;12.10;;;7.70;82.40;;;;;;5037551;28;20423;-81
2024/03/29 09:05:54;;;;;;;19.77;11.50;;;7.70;82.50;;;;;;5055978;28;20032;-81
2024/03/29 09:08:20;;;;;;;18.42;11.23;;;7.70;83.10;;;;;;5054772;28;20443;-81
2024/03/29 09:10:46;;;;;;;15.63;11.23;;;7.90;82.80;;;;;;5048983;28;20028;-81
2024/03/29 09:13:12;;;;;;;18.35;10.48;;;8.00;82.60;;;;;;5033631;28;20028;-82
2024/03/29 09:15:38;;;;;;;20.33;11.85;;;8.10;81.60;;;;;;5055657;28;20025;-80
2024/03/29 09:18:16;;;;;;;18.42;10.85;;;8.10;81.80;;;;;;5049899;28;20032;-79
2024/03/29 09:20:46;;;;;;;16.83;10.57;;;8.10;81.50;;;;;;5033951;28;20049;-80
2024/03/29 09:23:17;;;;;;;16.02;11.18;;;8.00;81.10;;;;;;5045238;28;20037;-80
2024/03/29 09:25:42;;;;;;;18.73;10.23;;;8.00;81.60;;;;;;5049825;28;20045;-80
2024/03/29 09:28:11;;;;;;;23.35;10.32;;;8.00;81.30;;;;;;5051030;28;20499;-81
2024/03/29 09:30:37;;;;;;;19.35;10.38;;;8.00;81.30;;;;;;5051459;28;20039;-81
2024/03/29 09:33:06;;;;;;;22.15;12.43;;;8.00;81.30;;;;;;5046619;28;20443;-81
2024/03/29 09:35:32;;;;;;;23.42;13.90;;;8.10;81.80;;;;;;5057107;28;20405;-81
2024/03/29 09:37:59;;;;;;;21.88;10.77;;;8.30;81.80;;;;;;5062240;28;20080;-80
2024/03/29 09:40:29;;;;;;;23.60;10.85;;;8.40;81.10;;;;;;5041916;28;20030;-81
2024/03/29 09:43:02;;;;;;;9.80;7.63;;;8.30;80.30;;;;;;5056701;28;20033;-82
2024/03/29 09:45:37;;;;;;;15.20;10.95;;;8.30;80.30;;;;;;5057409;28;20029;-83
2024/03/29 09:48:04;;;;;;;16.77;10.55;;;8.20;80.70;;;;;;5056000;28;20051;-80
2024/03/29 09:50:38;;;;;;;21.55;12.13;;;8.20;80.50;;;;;;5054457;28;20391;-81
2024/03/29 09:53:05;;;;;;;22.25;14.35;;;7.90;81.00;;;;;;5058580;28;20021;-83
2024/03/29 09:55:31;;;;;;;15.43;10.30;;;7.90;81.90;;;;;;5049612;28;20059;-82
2024/03/29 09:57:58;;;;;;;21.52;11.60;;;7.90;81.70;;;;;;5068448;28;20406;-82
2024/03/29 10:00:24;;;;;;;23.77;13.85;;;8.00;81.60;;;;;;5079185;28;20016;-83
2024/03/29 10:02:55;;;;;;;27.73;15.32;;;8.00;81.80;;;;;;5066769;28;20025;-82
2024/03/29 10:05:22;;;;;;;20.65;13.70;;;8.10;81.60;;;;;;5065182;28;20579;-85
2024/03/29 10:07:48;;;;;;;17.58;12.40;;;8.00;81.10;;;;;;5057653;28;20363;-84
2024/03/29 10:10:14;;;;;;;19.17;12.43;;;8.10;81.40;;;;;;5072664;28;20420;-84
2024/03/29 10:12:40;;;;;;;15.65;9.88;;;8.30;81.50;;;;;;5052902;28;20025;-85
2024/03/29 10:15:11;;;;;;;23.50;13.20;;;8.60;80.20;;;;;;5068659;28;20028;-84
2024/03/29 10:17:38;;;;;;;22.50;13.45;;;8.80;80.00;;;;;;5069468;28;20024;-85
2024/03/29 10:20:05;;;;;;;20.05;11.35;;;9.00;79.30;;;;;;5064693;28;20063;-83
2024/03/29 10:22:40;;;;;;;22.63;13.30;;;9.10;78.10;;;;;;5060436;28;20494;-86
2024/03/29 10:25:06;;;;;;;22.10;12.20;;;9.10;78.40;;;;;;5063981;28;20086;-85
2024/03/29 10:27:32;;;;;;;14.05;9.02;;;9.10;78.30;;;;;;5066369;28;20092;-83
2024/03/29 10:29:59;;;;;;;17.95;10.75;;;9.10;77.80;;;;;;5068064;28;20028;-87
2024/03/29 10:32:25;;;;;;;23.02;13.55;;;8.80;78.30;;;;;;5056470;28;20159;-85
2024/03/29 10:34:51;;;;;;;19.85;14.48;;;8.50;79.10;;;;;;5062342;28;20031;-84
2024/03/29 10:37:26;;;;;;;21.83;13.63;;;8.70;79.60;;;;;;5062066;28;20017;-84
2024/03/29 10:39:52;;;;;;;18.85;12.35;;;8.80;79.00;;;;;;5047324;28;20156;-82
2024/03/29 10:42:20;;;;;;;27.15;16.10;;;8.80;79.00;;;;;;5062025;28;20016;-84
2024/03/29 10:44:49;;;;;;;19.90;11.63;;;9.10;79.60;;;;;;5047572;28;20409;-83
2024/03/29 10:47:19;;;;;;;16.88;11.32;;;9.50;78.30;;;;;;5060755;28;20052;-83
2024/03/29 10:49:49;;;;;;;22.17;13.27;;;9.60;77.20;;;;;;5050700;28;20369;-84
2024/03/29 10:52:17;;;;;;;20.95;12.68;;;9.40;77.00;;;;;;5048992;28;20531;-83
2024/03/29 10:54:44;;;;;;;21.70;10.85;;;9.40;77.80;;;;;;5070377;28;20040;-82
2024/03/29 10:57:14;;;;;;;;;;;9.60;77.10;;;;;;5041069;28;20029;-82
2024/03/29 10:59:48;;;;;;;21.05;13.48;;;9.50;77.40;;;;;;5065415;28;19905;-84
2024/03/29 11:02:41;;;;;;;20.75;12.05;;;9.80;77.40;;;;;;5072784;28;20047;-84
2024/03/29 11:05:09;;;;;;;41.38;19.58;;;10.20;75.90;;;;;;5051982;28;20049;-83
2024/03/29 11:07:42;;;;;;;17.58;12.32;;;10.50;77.10;;;;;;5055237;28;20056;-81
2024/03/29 11:10:31;;;;;;;18.25;14.80;;;10.60;74.40;;;;;;5053616;28;20028;-87
2024/03/29 11:13:16;;;;;;;21.23;11.50;;;10.40;74.90;;;;;;5057790;28;20120;-83
2024/03/29 11:15:45;;;;;;;22.85;14.85;;;10.20;74.80;;;;;;5060938;28;20028;-83
2024/03/29 11:18:13;;;;;;;23.48;13.43;;;10.00;75.80;;;;;;5052930;28;20025;-83
2024/03/29 11:20:43;;;;;;;25.52;15.10;;;10.10;75.50;;;;;;5049909;28;20041;-83
2024/03/29 11:23:11;;;;;;;21.13;13.43;;;10.20;75.20;;;;;;5050348;28;20437;-83
2024/03/29 11:25:38;;;;;;;25.55;14.95;;;10.30;75.00;;;;;;5042145;28;20033;-83
2024/03/29 11:28:08;;;;;;;22.55;14.75;;;10.40;75.40;;;;;;5053787;28;20024;-82
2024/03/29 11:30:46;;;;;;;28.48;16.77;;;10.70;74.40;;;;;;5053786;28;20037;-81
2024/03/29 11:33:30;;;;;;;20.50;13.55;;;10.80;74.30;;;;;;5033993;28;20063;-84
2024/03/29 11:36:13;;;;;;;19.65;13.88;;;10.50;74.30;;;;;;5057103;28;20063;-82
2024/03/29 11:38:40;;;;;;;24.70;15.10;;;10.60;74.40;;;;;;5045992;28;20036;-84
2024/03/29 11:41:11;;;;;;;44.83;17.67;;;10.80;74.70;;;;;;5059016;28;20063;-83
2024/03/29 11:43:38;;;;;;;27.60;16.13;;;10.70;74.20;;;;;;5049799;28;20026;-84
2024/03/29 11:46:08;;;;;;;25.15;14.35;;;10.50;74.60;;;;;;5034279;28;20052;-85
2024/03/29 11:48:35;;;;;;;22.13;14.80;;;10.40;74.70;;;;;;5051409;28;20079;-83
2024/03/29 11:51:05;;;;;;;27.13;16.35;;;10.20;75.00;;;;;;5035647;28;20028;-83
2024/03/29 11:53:32;;;;;;;22.65;14.90;;;9.90;75.60;;;;;;5037872;28;20052;-82
2024/03/29 11:55:59;;;;;;;28.55;15.18;;;9.70;76.40;;;;;;5053519;28;20118;-83
2024/03/29 11:58:28;;;;;;;24.90;13.13;;;9.70;76.70;;;;;;5033876;28;20047;-83
2024/03/29 12:00:56;;;;;;;24.05;16.10;;;9.60;77.00;;;;;;5057497;28;20105;-82
2024/03/29 12:03:23;;;;;;;28.30;16.10;;;9.60;77.40;;;;;;5053440;28;20024;-83
2024/03/29 12:05:51;;;;;;;26.50;14.93;;;9.70;77.60;;;;;;5055912;28;20025;-81
2024/03/29 12:08:17;;;;;;;24.98;15.90;;;9.80;77.80;;;;;;5057719;28;20033;-85
2024/03/29 12:10:44;;;;;;;24.65;15.73;;;9.90;77.50;;;;;;5061769;28;20525;-85
2024/03/29 12:13:10;;;;;;;30.33;17.25;;;9.90;77.50;;;;;;5044087;28;20021;-86
2024/03/29 12:15:36;;;;;;;29.98;15.77;;;10.00;77.70;;;;;;5058553;28;20035;-85
2024/03/29 12:18:05;;;;;;;22.35;15.38;;;10.00;77.40;;;;;;5067898;28;20028;-84
2024/03/29 12:20:32;;;;;;;29.55;16.60;;;10.00;77.60;;;;;;5064202;28;20049;-86
2024/03/29 12:23:10;;;;;;;23.90;14.20;;;9.90;77.80;;;;;;5066513;28;20454;-86
2024/03/29 12:25:37;;;;;;;21.00;15.95;;;9.90;78.20;;;;;;5071252;28;20339;-84
2024/03/29 12:28:04;;;;;;;22.05;16.48;;;9.90;78.50;;;;;;5054497;28;20021;-84
2024/03/29 12:30:30;;;;;;;25.00;16.80;;;10.00;78.70;;;;;;5040049;28;20392;-87
2024/03/29 12:33:11;;;;;;;33.73;19.33;;;10.20;78.40;;;;;;5043892;28;20020;-85
2024/03/29 12:35:37;;;;;;;24.80;16.40;;;10.40;78.00;;;;;;5037360;28;20266;-81
2024/03/29 12:38:04;;;;;;;31.73;17.90;;;10.70;77.50;;;;;;5056770;28;20025;-82
2024/03/29 12:40:39;;;;;;;35.10;18.08;;;10.90;76.50;;;;;;5054864;28;20104;-82
2024/03/29 12:43:08;;;;;;;26.80;17.35;;;11.10;76.30;;;;;;5055362;28;20033;-81
2024/03/29 12:45:38;;;;;;;29.13;17.23;;;11.30;75.90;;;;;;5054084;28;20075;-80
2024/03/29 12:48:10;;;;;;;28.27;16.27;;;11.40;75.30;;;;;;5046927;28;20048;-82
2024/03/29 12:50:36;;;;;;;25.38;15.90;;;11.40;75.20;;;;;;5038173;28;20385;-83